Time;durP1;ratioP1;P1;durP2;ratioP2;P2;SDS_P1;SDS_P2;PMS_P1;PMS_P2;Temp;Humidity;BMP_temperature;BMP_pressure;BME280_temperature;BME280_humidity;BME280_pressure;Samples;Min_cycle;Max_cycle;Signal;HPM_P1;HPM_P2
2023/03/16 00:00:39;;;;;;;88.10;26.98;;;4.30;99.90;;;;;;5073840;28;20386;-71
2023/03/16 00:03:05;;;;;;;50.05;17.88;;;4.30;99.90;;;;;;5073591;28;20496;-71
2023/03/16 00:05:31;;;;;;;29.55;10.38;;;4.30;99.90;;;;;;5073843;28;20036;-71
2023/03/16 00:07:57;;;;;;;34.78;10.25;;;4.20;99.90;;;;;;5074949;28;20017;-71
2023/03/16 00:10:26;;;;;;;23.80;8.20;;;4.20;99.90;;;;;;5077075;28;20306;-71
2023/03/16 00:12:55;;;;;;;35.65;12.45;;;4.20;99.90;;;;;;5077251;28;20031;-71
2023/03/16 00:15:22;;;;;;;35.38;11.02;;;4.10;99.90;;;;;;5077379;28;20034;-71
2023/03/16 00:17:48;;;;;;;38.65;13.00;;;4.20;99.90;;;;;;5076903;28;20486;-71
2023/03/16 00:20:16;;;;;;;14.00;5.90;;;4.30;99.90;;;;;;5076955;28;20108;-71
2023/03/16 00:22:42;;;;;;;29.20;7.30;;;4.40;99.90;;;;;;5076966;28;20028;-71
2023/03/16 00:25:09;;;;;;;16.60;6.65;;;4.30;99.90;;;;;;5076974;28;20400;-71
2023/03/16 00:27:35;;;;;;;16.88;7.25;;;4.30;99.90;;;;;;5076872;28;20021;-71
2023/03/16 00:30:02;;;;;;;25.65;11.45;;;4.30;99.90;;;;;;5076656;28;20119;-71
2023/03/16 00:32:33;;;;;;;30.45;12.52;;;4.30;99.90;;;;;;5075365;28;20031;-71
2023/03/16 00:35:03;;;;;;;20.80;9.90;;;4.30;99.90;;;;;;5076589;28;20044;-71
2023/03/16 00:37:31;;;;;;;18.35;8.73;;;4.30;99.90;;;;;;5076745;28;20470;-71
2023/03/16 00:39:59;;;;;;;22.67;9.63;;;4.30;99.90;;;;;;5076674;28;20078;-71
2023/03/16 00:42:28;;;;;;;20.13;7.85;;;4.30;99.90;;;;;;5076677;28;20021;-71
2023/03/16 00:44:56;;;;;;;18.45;8.20;;;4.20;99.90;;;;;;5075558;28;20035;-71
2023/03/16 00:47:24;;;;;;;18.90;7.88;;;4.20;99.90;;;;;;5076648;28;20029;-71
2023/03/16 00:49:50;;;;;;;17.40;7.53;;;4.20;99.90;;;;;;5076362;28;20039;-71
2023/03/16 00:52:16;;;;;;;16.33;6.38;;;4.20;99.90;;;;;;5075154;28;20035;-71
2023/03/16 00:54:43;;;;;;;15.65;5.45;;;4.20;99.90;;;;;;5076313;28;20027;-71
2023/03/16 00:57:11;;;;;;;15.88;5.50;;;4.10;99.90;;;;;;5088907;28;20512;-71
2023/03/16 00:59:37;;;;;;;18.25;6.50;;;4.10;99.90;;;;;;5056509;28;20051;-71
2023/03/16 01:02:06;;;;;;;13.70;5.57;;;4.10;99.90;;;;;;5055928;28;20035;-71
2023/03/16 01:04:33;;;;;;;12.88;5.10;;;4.10;99.90;;;;;;5088389;28;20383;-71
2023/03/16 01:06:59;;;;;;;13.75;3.80;;;4.10;99.90;;;;;;5054601;28;20032;-71
2023/03/16 01:09:25;;;;;;;12.93;3.97;;;4.20;99.90;;;;;;5056154;28;20029;-71
2023/03/16 01:11:53;;;;;;;11.95;4.30;;;4.20;99.90;;;;;;5056003;28;20025;-71
2023/03/16 01:14:20;;;;;;;12.77;4.50;;;4.20;99.90;;;;;;5056100;28;20021;-71
2023/03/16 01:16:47;;;;;;;14.32;5.55;;;4.30;99.90;;;;;;5055882;28;20489;-71
2023/03/16 01:19:13;;;;;;;16.60;4.55;;;4.20;99.90;;;;;;5086954;28;20032;-72
2023/03/16 01:21:41;;;;;;;12.13;5.40;;;4.30;99.90;;;;;;5088214;28;20025;-71
2023/03/16 01:24:09;;;;;;;17.77;6.93;;;4.20;99.90;;;;;;5054266;28;20037;-71
2023/03/16 01:26:35;;;;;;;13.48;5.50;;;4.20;99.90;;;;;;5056068;28;20021;-71
2023/03/16 01:29:01;;;;;;;18.38;5.80;;;4.20;99.90;;;;;;5054386;28;20478;-71
2023/03/16 01:31:28;;;;;;;17.15;5.97;;;4.20;99.90;;;;;;5055336;28;20032;-72
2023/03/16 01:33:55;;;;;;;16.88;6.07;;;4.30;99.90;;;;;;5090447;28;20049;-72
2023/03/16 01:36:25;;;;;;;9.27;4.30;;;4.30;99.90;;;;;;5074341;28;20085;-71
2023/03/16 01:38:59;;;;;;;9.60;4.10;;;4.30;99.90;;;;;;5074192;28;20021;-72
2023/03/16 01:41:28;;;;;;;12.02;3.65;;;4.20;99.90;;;;;;5074229;28;20029;-72
2023/03/16 01:43:57;;;;;;;8.90;3.85;;;4.20;99.90;;;;;;5073883;28;20024;-72
2023/03/16 01:46:27;;;;;;;15.57;4.22;;;4.10;99.90;;;;;;5074180;28;20500;-72
2023/03/16 01:49:27;;;;;;;23.63;6.82;;;4.10;99.90;;;;;;5074031;28;20125;-72
2023/03/16 01:52:01;;;;;;;17.33;5.18;;;4.00;99.90;;;;;;5073969;28;20036;-72
2023/03/16 01:54:33;;;;;;;13.65;5.45;;;3.90;99.90;;;;;;5073622;28;20024;-72
2023/03/16 01:57:10;;;;;;;;;;;4.00;99.90;;;;;;5074132;28;20020;-72
2023/03/16 01:59:41;;;;;;;11.15;4.72;;;4.10;99.90;;;;;;5073774;28;19961;-72
2023/03/16 02:02:10;;;;;;;16.42;4.45;;;4.10;99.90;;;;;;5073842;28;20033;-72
2023/03/16 02:04:43;;;;;;;16.15;5.82;;;4.00;99.90;;;;;;5073698;28;20033;-72
2023/03/16 02:07:11;;;;;;;11.30;4.50;;;4.00;99.90;;;;;;5073434;28;20162;-72
2023/03/16 02:09:45;;;;;;;14.77;5.85;;;4.00;99.90;;;;;;5073642;28;20032;-72
2023/03/16 02:12:17;;;;;;;19.10;6.35;;;4.00;99.90;;;;;;5074323;28;20522;-72
2023/03/16 02:14:47;;;;;;;13.63;4.60;;;3.90;99.90;;;;;;5074263;28;20025;-72
2023/03/16 02:17:14;;;;;;;26.58;8.90;;;3.80;99.90;;;;;;5074343;28;20031;-72
2023/03/16 02:20:10;;;;;;;26.73;8.70;;;3.80;99.90;;;;;;5074107;28;20025;-72
2023/03/16 02:22:48;;;;;;;26.05;10.30;;;4.00;99.90;;;;;;5073027;28;20044;-72
2023/03/16 02:25:17;;;;;;;16.13;6.10;;;3.90;99.90;;;;;;5074061;28;20469;-71
2023/03/16 02:27:58;;;;;;;17.45;6.10;;;3.90;99.90;;;;;;5075418;28;20402;-72
2023/03/16 02:30:25;;;;;;;17.60;6.53;;;3.80;99.90;;;;;;5073643;28;20398;-71
2023/03/16 02:32:58;;;;;;;18.50;6.65;;;3.80;99.90;;;;;;5073895;28;20540;-71
2023/03/16 02:35:24;;;;;;;18.73;7.55;;;3.70;99.90;;;;;;5073857;28;20029;-72
2023/03/16 02:37:51;;;;;;;17.60;6.97;;;3.60;99.90;;;;;;5074153;28;20028;-72
2023/03/16 02:40:24;;;;;;;19.52;7.57;;;3.50;99.90;;;;;;5073818;28;20036;-72
2023/03/16 02:43:06;;;;;;;16.65;6.72;;;3.50;99.90;;;;;;5073826;28;20378;-72
2023/03/16 02:45:52;;;;;;;16.48;6.45;;;3.40;99.90;;;;;;5073989;28;20033;-72
2023/03/16 02:48:26;;;;;;;17.02;6.80;;;3.30;99.90;;;;;;5073922;28;20036;-72
2023/03/16 02:50:53;;;;;;;15.38;6.63;;;3.20;99.90;;;;;;5073725;28;20453;-72
2023/03/16 02:53:19;;;;;;;13.52;5.70;;;3.10;99.90;;;;;;5073754;28;20074;-72
2023/03/16 02:55:46;;;;;;;14.48;6.65;;;3.00;99.90;;;;;;5073591;28;20509;-72
2023/03/16 02:58:12;;;;;;;16.42;7.80;;;3.00;99.90;;;;;;5073778;28;20025;-72
2023/03/16 03:00:39;;;;;;;19.38;8.20;;;2.90;99.90;;;;;;5075123;28;20036;-72
2023/03/16 03:03:07;;;;;;;15.75;6.65;;;2.90;99.90;;;;;;5074992;28;20028;-72
2023/03/16 03:05:33;;;;;;;13.23;6.43;;;2.80;99.90;;;;;;5073325;28;20031;-72
2023/03/16 03:07:59;;;;;;;15.98;5.35;;;2.80;99.90;;;;;;5074827;28;20024;-72
2023/03/16 03:10:26;;;;;;;17.63;6.15;;;2.70;99.90;;;;;;5073686;28;20033;-72
2023/03/16 03:12:52;;;;;;;14.90;6.55;;;2.60;99.90;;;;;;5074982;28;20027;-72
2023/03/16 03:15:20;;;;;;;15.60;6.28;;;2.60;99.90;;;;;;5073637;28;20119;-72
2023/03/16 03:17:58;;;;;;;13.15;5.70;;;2.50;99.90;;;;;;5073436;28;20036;-72
2023/03/16 03:20:26;;;;;;;15.05;6.10;;;2.40;99.90;;;;;;5073670;28;20032;-72
2023/03/16 03:22:53;;;;;;;12.00;5.25;;;2.20;99.90;;;;;;5073623;28;20040;-72
2023/03/16 03:25:20;;;;;;;14.68;5.57;;;2.20;99.90;;;;;;5073393;28;20033;-72
2023/03/16 03:27:48;;;;;;;15.32;5.78;;;2.30;99.90;;;;;;5074791;28;20032;-72
2023/03/16 03:30:19;;;;;;;11.45;5.30;;;2.20;99.90;;;;;;5073218;28;20037;-72
2023/03/16 03:32:47;;;;;;;13.82;5.43;;;2.20;99.90;;;;;;5073318;28;20039;-72
2023/03/16 03:35:14;;;;;;;16.30;5.57;;;2.20;99.90;;;;;;5073195;28;20024;-72
2023/03/16 03:37:43;;;;;;;12.98;5.57;;;2.10;99.90;;;;;;5107173;28;20494;-72
2023/03/16 03:40:12;;;;;;;15.85;5.95;;;2.10;99.90;;;;;;5073534;28;20432;-72
2023/03/16 03:42:41;;;;;;;15.48;5.85;;;2.10;99.90;;;;;;5074287;28;20025;-72
2023/03/16 03:45:08;;;;;;;13.27;4.78;;;2.00;99.90;;;;;;5077187;28;20074;-72
2023/03/16 03:47:35;;;;;;;14.57;5.30;;;1.90;99.90;;;;;;5077164;28;20033;-72
2023/03/16 03:50:04;;;;;;;14.63;5.20;;;1.90;99.90;;;;;;5076950;28;20455;-72
2023/03/16 03:52:32;;;;;;;14.82;5.22;;;1.80;99.90;;;;;;5076947;28;20039;-72
2023/03/16 03:54:58;;;;;;;10.75;4.40;;;1.80;99.90;;;;;;5076742;28;20021;-72
2023/03/16 03:57:24;;;;;;;14.15;5.30;;;1.70;99.90;;;;;;5076872;28;20025;-72
2023/03/16 03:59:50;;;;;;;20.45;5.13;;;1.70;99.90;;;;;;5078340;28;20032;-72
2023/03/16 04:02:37;;;;;;;13.82;5.85;;;1.70;99.90;;;;;;5067374;28;20028;-72
2023/03/16 04:05:06;;;;;;;13.05;4.53;;;1.60;99.90;;;;;;5076814;28;20033;-72
2023/03/16 04:07:32;;;;;;;9.02;5.10;;;1.60;99.90;;;;;;5077990;28;20032;-72
2023/03/16 04:10:02;;;;;;;17.00;5.65;;;1.70;99.90;;;;;;5076479;28;20032;-72
2023/03/16 04:12:34;;;;;;;9.20;4.72;;;1.60;99.90;;;;;;5076616;28;20390;-71
2023/03/16 04:15:00;;;;;;;10.95;4.30;;;1.70;99.90;;;;;;5076453;28;20025;-72
2023/03/16 04:17:33;;;;;;;11.27;5.03;;;1.70;99.90;;;;;;5076499;28;20036;-72
2023/03/16 04:20:01;;;;;;;13.77;4.80;;;1.60;99.90;;;;;;5076348;28;20037;-71
2023/03/16 04:22:29;;;;;;;11.75;4.78;;;1.60;99.90;;;;;;5076457;28;20040;-71
2023/03/16 04:24:55;;;;;;;11.85;4.50;;;1.50;99.90;;;;;;5076437;28;20028;-71
2023/03/16 04:27:23;;;;;;;12.63;5.13;;;1.50;99.90;;;;;;5076444;28;20032;-71
2023/03/16 04:29:49;;;;;;;10.85;5.22;;;1.50;99.90;;;;;;5077499;28;20029;-71
2023/03/16 04:32:15;;;;;;;18.15;5.13;;;1.40;99.90;;;;;;5076317;28;20086;-71
2023/03/16 04:34:42;;;;;;;13.52;4.47;;;1.40;99.90;;;;;;5075972;28;20044;-71
2023/03/16 04:37:10;;;;;;;12.27;5.22;;;1.40;99.90;;;;;;5076231;28;20044;-71
2023/03/16 04:39:38;;;;;;;18.77;6.43;;;1.40;99.90;;;;;;5076245;28;20036;-71
2023/03/16 04:42:05;;;;;;;14.38;5.40;;;1.30;99.90;;;;;;5075967;28;20035;-71
2023/03/16 04:44:31;;;;;;;15.18;6.00;;;1.30;99.90;;;;;;5077411;28;20063;-71
2023/03/16 04:46:58;;;;;;;16.42;5.78;;;1.40;99.90;;;;;;5076098;28;20032;-71
2023/03/16 04:49:27;;;;;;;14.07;6.32;;;1.20;99.90;;;;;;5075963;28;20032;-71
2023/03/16 04:51:54;;;;;;;18.55;6.47;;;1.30;99.90;;;;;;5075975;28;20462;-71
2023/03/16 04:54:21;;;;;;;16.25;6.50;;;1.30;99.90;;;;;;5075647;28;20116;-71
2023/03/16 04:56:47;;;;;;;14.63;7.65;;;1.20;99.90;;;;;;5075672;28;20029;-71
2023/03/16 04:59:34;;;;;;;18.02;8.07;;;1.20;99.90;;;;;;5075905;28;20106;-71
2023/03/16 05:02:13;;;;;;;17.73;7.25;;;1.20;99.90;;;;;;5075682;28;20040;-71
2023/03/16 05:04:39;;;;;;;19.25;8.60;;;1.30;99.90;;;;;;5075715;28;20032;-71
2023/03/16 05:07:10;;;;;;;15.93;6.53;;;1.30;99.90;;;;;;5075674;28;20113;-71
2023/03/16 05:09:38;;;;;;;25.40;9.60;;;1.30;99.90;;;;;;5075460;28;20789;-71
2023/03/16 05:12:04;;;;;;;20.98;9.93;;;1.30;99.90;;;;;;5075481;28;20044;-71
2023/03/16 05:14:31;;;;;;;24.38;10.38;;;1.20;99.90;;;;;;5075547;28;20036;-71
2023/03/16 05:17:13;;;;;;;23.10;10.13;;;1.30;99.90;;;;;;5075610;28;20110;-71
2023/03/16 05:19:41;;;;;;;27.73;12.48;;;1.30;99.90;;;;;;5075267;28;20032;-71
2023/03/16 05:22:08;;;;;;;33.72;14.63;;;1.30;99.90;;;;;;5075352;28;20037;-71
2023/03/16 05:24:36;;;;;;;29.67;13.15;;;1.50;99.90;;;;;;5075278;28;20545;-71
2023/03/16 05:27:02;;;;;;;38.10;14.85;;;2.00;99.90;;;;;;5076576;28;20037;-71
2023/03/16 05:29:32;;;;;;;33.80;15.15;;;2.70;99.90;;;;;;5075436;28;20432;-71
2023/03/16 05:31:58;;;;;;;40.63;17.00;;;3.50;99.90;;;;;;5074967;28;20055;-71
2023/03/16 05:34:28;;;;;;;38.47;16.33;;;4.00;99.90;;;;;;5074727;28;20048;-71
2023/03/16 05:36:53;;;;;;;50.30;22.33;;;4.70;99.90;;;;;;5076538;28;20531;-71
2023/03/16 05:39:22;;;;;;;103.80;42.25;;;5.30;99.90;;;;;;5075125;28;20044;-71
2023/03/16 05:41:49;;;;;;;89.78;40.63;;;5.80;99.90;;;;;;5074884;28;20020;-71
2023/03/16 05:44:25;;;;;;;120.18;55.92;;;5.90;99.90;;;;;;5074913;28;20074;-71
2023/03/16 05:47:21;;;;;;;118.47;52.22;;;6.20;99.90;;;;;;5066800;28;20036;-70
2023/03/16 05:49:52;;;;;;;123.93;53.38;;;6.30;99.90;;;;;;5074737;28;20033;-70
2023/03/16 05:52:24;;;;;;;114.53;51.20;;;6.30;99.90;;;;;;5074697;28;20029;-70
2023/03/16 05:54:50;;;;;;;119.85;52.15;;;6.30;99.90;;;;;;5074495;28;20066;-70
2023/03/16 05:57:16;;;;;;;101.38;44.53;;;6.30;99.90;;;;;;5076108;28;20055;-70
2023/03/16 05:59:45;;;;;;;104.03;47.95;;;6.10;99.90;;;;;;5074699;28;20063;-70
2023/03/16 06:02:12;;;;;;;91.13;41.05;;;6.10;99.90;;;;;;5074657;28;20032;-70
2023/03/16 06:04:38;;;;;;;88.80;40.47;;;6.20;99.90;;;;;;5091129;28;20028;-70
2023/03/16 06:07:04;;;;;;;86.90;40.65;;;6.40;99.90;;;;;;5074011;28;20042;-70
2023/03/16 06:09:30;;;;;;;62.90;28.40;;;6.50;99.90;;;;;;5074348;28;20036;-70
2023/03/16 06:11:57;;;;;;;50.75;22.25;;;6.60;99.90;;;;;;5074378;28;20142;-70
2023/03/16 06:14:23;;;;;;;45.63;22.95;;;6.90;99.90;;;;;;5074443;28;20461;-70
2023/03/16 06:16:51;;;;;;;32.83;16.35;;;7.00;99.90;;;;;;5074153;28;20021;-70
2023/03/16 06:19:17;;;;;;;36.38;14.57;;;7.20;99.90;;;;;;5075263;28;20052;-70
2023/03/16 06:21:45;;;;;;;36.50;15.80;;;7.20;99.90;;;;;;5074105;28;20035;-70
2023/03/16 06:24:11;;;;;;;30.75;13.98;;;7.40;99.90;;;;;;5066684;28;20048;-70
2023/03/16 06:26:37;;;;;;;31.20;12.60;;;7.60;99.90;;;;;;5059079;28;20067;-70
2023/03/16 06:29:06;;;;;;;22.92;8.48;;;7.90;99.90;;;;;;5103266;28;20025;-70
2023/03/16 06:31:35;;;;;;;38.05;17.90;;;8.00;99.90;;;;;;5095831;28;20033;-70
2023/03/16 06:34:02;;;;;;;39.13;11.40;;;8.30;99.90;;;;;;5100384;27;20036;-70
2023/03/16 06:36:29;;;;;;;30.85;8.60;;;8.50;99.90;;;;;;5073828;28;20021;-70
2023/03/16 06:38:58;;;;;;;32.05;9.05;;;8.80;99.90;;;;;;5073524;28;20517;-70
2023/03/16 06:41:34;;;;;;;23.00;7.35;;;9.20;99.90;;;;;;5073127;28;20032;-70
2023/03/16 06:44:01;;;;;;;;;;;9.50;99.90;;;;;;5074262;28;20039;-70
2023/03/16 06:46:28;;;;;;;22.38;6.75;;;9.80;99.90;;;;;;5073849;28;19920;-70
2023/03/16 06:48:55;;;;;;;24.35;7.40;;;9.70;99.90;;;;;;5069955;28;20399;-70
2023/03/16 06:51:21;;;;;;;15.85;5.70;;;9.50;99.90;;;;;;5054940;28;20041;-70
2023/03/16 06:53:49;;;;;;;20.35;7.50;;;9.50;99.90;;;;;;5087162;28;20402;-70
2023/03/16 06:56:15;;;;;;;19.67;6.78;;;9.30;99.90;;;;;;5089489;28;20025;-70
2023/03/16 06:58:44;;;;;;;19.40;7.75;;;9.30;99.90;;;;;;5095623;28;20025;-70
2023/03/16 07:01:11;;;;;;;25.13;8.55;;;9.30;99.90;;;;;;5088616;28;20043;-71
2023/03/16 07:03:37;;;;;;;24.05;7.68;;;9.30;99.90;;;;;;5093511;28;20042;-70
2023/03/16 07:06:12;;;;;;;23.52;7.93;;;9.10;99.90;;;;;;5073046;28;20036;-70
2023/03/16 07:08:38;;;;;;;19.23;7.88;;;9.30;99.90;;;;;;5074952;28;20035;-70
2023/03/16 07:11:05;;;;;;;22.52;7.95;;;9.40;99.90;;;;;;5089830;28;20067;-70
2023/03/16 07:13:30;;;;;;;12.95;5.72;;;9.90;99.90;;;;;;5090784;28;20060;-70
2023/03/16 07:15:57;;;;;;;14.75;6.25;;;9.80;99.90;;;;;;5093490;28;20051;-70
2023/03/16 07:18:25;;;;;;;17.00;5.45;;;10.10;99.90;;;;;;5079575;28;20021;-70
2023/03/16 07:20:53;;;;;;;17.80;4.88;;;9.70;99.90;;;;;;5078990;28;20381;-69
2023/03/16 07:23:21;;;;;;;17.08;6.68;;;9.70;99.90;;;;;;5077446;28;20498;-69
2023/03/16 07:33:48;;;;;;;17.88;4.97;;;11.00;99.90;;;;;;5045910;28;20125;-70
2023/03/16 07:36:24;;;;;;;17.38;5.75;;;11.40;99.90;;;;;;5032732;28;20036;-70
2023/03/16 07:38:55;;;;;;;10.35;4.00;;;11.60;99.90;;;;;;5040297;28;20470;-70
2023/03/16 07:41:21;;;;;;;14.02;3.58;;;11.70;99.90;;;;;;5040435;28;20084;-70
2023/03/16 07:43:47;;;;;;;18.60;4.90;;;11.70;99.90;;;;;;5040333;28;20029;-72
2023/03/16 07:46:14;;;;;;;9.55;3.88;;;11.40;99.90;;;;;;5040224;28;20040;-74
2023/03/16 07:48:42;;;;;;;12.90;4.30;;;11.20;99.90;;;;;;5040057;28;20021;-74
2023/03/16 07:51:12;;;;;;;15.65;5.60;;;10.70;99.90;;;;;;5058237;28;20025;-75
2023/03/16 07:53:40;;;;;;;19.65;6.43;;;10.30;99.90;;;;;;5056583;28;20036;-75
2023/03/16 07:56:25;;;;;;;17.90;6.18;;;9.90;99.90;;;;;;5053891;28;20024;-75
2023/03/16 07:58:54;;;;;;;13.07;4.45;;;9.50;99.90;;;;;;5059660;28;20024;-75
2023/03/16 08:01:22;;;;;;;12.68;4.70;;;9.40;99.90;;;;;;5053013;28;20029;-75
2023/03/16 08:03:48;;;;;;;9.88;4.63;;;9.30;99.90;;;;;;5075359;28;20036;-75
2023/03/16 08:06:14;;;;;;;9.85;4.22;;;9.10;99.90;;;;;;5057988;28;20029;-75
2023/03/16 08:08:41;;;;;;;12.00;4.45;;;9.00;99.90;;;;;;5057736;28;20033;-75
2023/03/16 08:11:10;;;;;;;52.45;8.45;;;8.70;99.90;;;;;;5039886;28;20064;-75
2023/03/16 08:13:46;;;;;;;9.75;4.28;;;8.70;99.90;;;;;;5039900;28;20040;-75
2023/03/16 08:16:13;;;;;;;12.45;4.68;;;8.70;99.90;;;;;;5040176;28;20153;-75
2023/03/16 08:18:42;;;;;;;9.75;4.40;;;8.40;99.90;;;;;;5080340;28;20021;-76
2023/03/16 08:21:08;;;;;;;12.27;4.93;;;8.30;99.90;;;;;;5059189;28;20028;-75
2023/03/16 08:23:35;;;;;;;20.98;6.07;;;8.50;99.90;;;;;;5068337;28;20024;-74
2023/03/16 08:26:02;;;;;;;10.38;4.25;;;8.60;99.90;;;;;;5076909;28;20470;-74
2023/03/16 08:28:29;;;;;;;11.10;4.70;;;9.30;99.90;;;;;;5079069;28;20032;-73
2023/03/16 08:30:57;;;;;;;9.90;4.20;;;9.60;99.90;;;;;;5076419;28;20544;-73
2023/03/16 08:33:43;;;;;;;10.55;3.95;;;10.10;99.90;;;;;;5067679;28;20087;-72
2023/03/16 08:36:11;;;;;;;;;;;10.30;99.90;;;;;;5076264;28;20032;-73
2023/03/16 08:38:38;;;;;;;13.05;4.07;;;10.40;99.90;;;;;;5089362;28;19982;-73
2023/03/16 08:41:07;;;;;;;18.90;5.20;;;10.30;99.90;;;;;;5101861;28;20400;-73
2023/03/16 08:43:36;;;;;;;12.75;4.40;;;10.40;99.90;;;;;;5078076;28;20034;-73
2023/03/16 08:46:04;;;;;;;10.60;4.78;;;10.30;99.90;;;;;;5078385;28;20039;-73
2023/03/16 08:48:41;;;;;;;12.32;4.93;;;9.80;99.90;;;;;;5078712;28;20032;-73
2023/03/16 08:51:09;;;;;;;12.00;4.68;;;9.90;99.90;;;;;;5078325;28;20443;-72
2023/03/16 08:53:38;;;;;;;8.88;3.50;;;9.80;99.90;;;;;;5096311;28;20028;-73
2023/03/16 08:56:06;;;;;;;15.60;4.75;;;10.10;99.90;;;;;;5096423;28;20108;-73
2023/03/16 08:58:33;;;;;;;16.25;4.57;;;10.50;99.90;;;;;;5096503;28;20028;-73
2023/03/16 09:01:04;;;;;;;13.77;4.10;;;10.50;99.90;;;;;;5096095;28;20028;-73
2023/03/16 09:03:31;;;;;;;34.15;6.97;;;9.70;99.90;;;;;;5096465;28;20260;-73
2023/03/16 09:06:03;;;;;;;12.38;5.35;;;9.50;99.90;;;;;;5096140;28;20086;-73
2023/03/16 09:08:29;;;;;;;21.17;5.97;;;9.50;99.90;;;;;;5096501;28;20035;-73
2023/03/16 09:11:11;;;;;;;19.95;5.57;;;9.60;99.90;;;;;;5096161;28;20434;-73
2023/03/16 09:13:38;;;;;;;36.03;6.65;;;9.60;99.90;;;;;;5096367;28;20024;-73
2023/03/16 09:16:06;;;;;;;21.13;7.32;;;9.90;99.90;;;;;;5095655;28;20078;-73
2023/03/16 09:18:34;;;;;;;16.13;5.75;;;9.70;99.90;;;;;;5096191;28;20024;-73
2023/03/16 09:21:02;;;;;;;16.50;6.70;;;9.80;99.90;;;;;;5096088;28;20489;-74
2023/03/16 09:23:29;;;;;;;22.42;5.28;;;9.60;99.90;;;;;;5096107;28;20497;-73
2023/03/16 09:25:59;;;;;;;15.30;4.78;;;9.50;99.90;;;;;;5095992;28;20020;-74
2023/03/16 09:28:27;;;;;;;26.60;7.63;;;9.40;99.90;;;;;;5095189;28;20101;-74
2023/03/16 09:30:54;;;;;;;17.50;6.65;;;9.50;99.90;;;;;;5095104;28;20051;-73
2023/03/16 09:33:21;;;;;;;27.83;7.80;;;9.40;99.90;;;;;;5095964;28;20034;-75
2023/03/16 09:35:48;;;;;;;31.65;8.35;;;9.40;99.90;;;;;;5095413;28;20044;-75
2023/03/16 09:38:14;;;;;;;47.13;10.10;;;9.50;99.90;;;;;;5095657;28;20028;-76
2023/03/16 09:40:40;;;;;;;43.08;13.20;;;9.50;99.90;;;;;;5094729;28;20103;-76
2023/03/16 09:43:31;;;;;;;39.05;10.30;;;9.40;99.90;;;;;;5095161;28;20020;-76
2023/03/16 09:45:58;;;;;;;22.40;6.78;;;9.30;99.90;;;;;;5095371;28;20020;-76
2023/03/16 09:48:28;;;;;;;40.17;8.50;;;9.10;99.90;;;;;;5077184;28;20062;-76
2023/03/16 09:50:57;;;;;;;12.43;4.97;;;8.70;99.90;;;;;;5095365;28;20115;-76
2023/03/16 09:53:38;;;;;;;34.65;9.35;;;8.90;99.90;;;;;;5095330;28;20265;-77
2023/03/16 09:56:14;;;;;;;34.63;10.57;;;8.80;99.90;;;;;;5095228;28;20023;-76
2023/03/16 09:58:40;;;;;;;19.23;5.22;;;9.10;99.90;;;;;;5094208;28;20016;-75
2023/03/16 10:02:00;;;;;;;23.33;8.32;;;9.50;99.90;;;;;;5095168;28;20028;-75
2023/03/16 10:04:32;;;;;;;14.77;5.05;;;10.00;99.90;;;;;;5052513;28;20595;-75
2023/03/16 10:07:11;;;;;;;12.70;5.40;;;10.00;99.90;;;;;;5093927;28;20047;-76
2023/03/16 10:09:46;;;;;;;27.08;7.10;;;9.90;99.90;;;;;;5094880;28;20096;-75
2023/03/16 10:12:19;;;;;;;52.67;15.02;;;9.70;99.90;;;;;;5094939;28;20085;-76
2023/03/16 10:14:56;;;;;;;30.27;8.30;;;9.60;99.90;;;;;;5095100;28;20103;-76
2023/03/16 10:17:38;;;;;;;23.45;7.03;;;9.40;99.90;;;;;;5094542;28;20028;-75
2023/03/16 10:20:13;;;;;;;16.67;5.00;;;9.50;99.90;;;;;;5095492;28;20050;-74
2023/03/16 10:22:43;;;;;;;10.57;4.30;;;9.70;99.90;;;;;;5095893;28;20035;-75
2023/03/16 10:25:29;;;;;;;10.48;3.97;;;9.90;99.90;;;;;;5095091;28;20052;-75
2023/03/16 10:27:56;;;;;;;11.30;4.63;;;10.10;99.90;;;;;;5094951;28;20032;-75
2023/03/16 10:30:22;;;;;;;14.75;5.28;;;9.90;99.90;;;;;;5094305;28;20032;-74
2023/03/16 10:32:48;;;;;;;15.25;4.80;;;10.00;99.90;;;;;;5094822;28;20035;-74
2023/03/16 10:35:47;;;;;;;12.57;4.78;;;10.20;99.90;;;;;;5094308;28;20036;-74
2023/03/16 10:39:06;;;;;;;19.50;6.78;;;9.90;99.90;;;;;;5094570;28;20490;-75
2023/03/16 10:41:42;;;;;;;16.35;4.88;;;10.00;99.90;;;;;;5091125;28;20054;-74
2023/03/16 10:44:15;;;;;;;14.77;4.00;;;9.80;99.90;;;;;;5094480;28;20109;-74
2023/03/16 10:47:03;;;;;;;10.45;3.60;;;10.50;99.90;;;;;;5094510;28;20034;-74
2023/03/16 10:49:47;;;;;;;7.93;3.15;;;11.20;99.90;;;;;;5094732;28;20100;-73
2023/03/16 10:52:13;;;;;;;15.10;4.40;;;11.90;99.90;;;;;;5094116;28;20024;-73
2023/03/16 10:54:46;;;;;;;13.40;4.35;;;12.50;99.90;;;;;;5094238;28;20024;-73
2023/03/16 10:57:32;;;;;;;7.10;3.08;;;13.00;99.90;;;;;;5094581;28;20477;-74
2023/03/16 11:00:19;;;;;;;13.40;4.78;;;13.50;99.90;;;;;;5094318;28;20040;-74
2023/03/16 11:02:48;;;;;;;6.60;3.55;;;13.20;99.90;;;;;;5094285;28;20028;-74
2023/03/16 11:05:18;;;;;;;14.23;4.78;;;12.80;99.90;;;;;;5093978;28;20390;-75
2023/03/16 11:07:48;;;;;;;20.83;7.70;;;12.20;99.90;;;;;;5094056;28;20021;-76
2023/03/16 11:10:36;;;;;;;14.70;5.22;;;12.10;99.90;;;;;;5094115;28;20269;-76
2023/03/16 11:13:11;;;;;;;16.38;5.32;;;11.70;99.90;;;;;;5094335;28;20027;-74
2023/03/16 11:15:45;;;;;;;16.38;5.20;;;11.60;99.90;;;;;;5094099;28;20060;-74
2023/03/16 11:18:42;;;;;;;16.08;4.65;;;11.50;99.90;;;;;;5094101;28;20067;-74
2023/03/16 11:21:38;;;;;;;7.47;3.17;;;11.30;99.90;;;;;;5081934;28;20051;-74
2023/03/16 11:24:09;;;;;;;24.13;5.22;;;11.10;99.90;;;;;;5094180;28;20053;-74
2023/03/16 11:26:41;;;;;;;10.38;4.45;;;11.00;99.90;;;;;;5094155;28;20024;-74
2023/03/16 11:29:16;;;;;;;12.27;4.90;;;10.90;99.90;;;;;;5091701;28;20036;-74
2023/03/16 11:31:54;;;;;;;17.95;5.00;;;10.50;99.90;;;;;;5093819;28;20032;-75
2023/03/16 11:34:29;;;;;;;12.23;6.57;;;10.70;99.90;;;;;;5087200;28;20048;-75
2023/03/16 11:37:04;;;;;;;12.63;4.78;;;11.00;99.90;;;;;;5073317;28;20028;-74
2023/03/16 11:39:39;;;;;;;13.55;4.45;;;11.00;99.90;;;;;;5073734;28;20025;-74
2023/03/16 11:42:23;;;;;;;16.25;5.47;;;11.00;99.90;;;;;;5073757;28;20047;-74
2023/03/16 11:44:50;;;;;;;13.88;3.78;;;11.40;99.90;;;;;;5071319;28;20201;-74
2023/03/16 11:47:28;;;;;;;8.80;3.45;;;11.50;99.90;;;;;;5073594;28;20167;-74
2023/03/16 11:50:08;;;;;;;7.70;3.70;;;11.30;99.90;;;;;;5073381;28;20031;-74
2023/03/16 11:52:37;;;;;;;9.90;4.05;;;11.20;99.90;;;;;;5073284;28;20025;-75
2023/03/16 11:55:11;;;;;;;9.55;3.90;;;11.20;99.90;;;;;;5073950;28;20029;-74
2023/03/16 11:58:00;;;;;;;12.82;3.42;;;11.20;99.90;;;;;;5074252;28;20374;-74
2023/03/16 12:00:41;;;;;;;12.93;4.45;;;10.90;99.90;;;;;;5074048;28;20497;-74
2023/03/16 12:03:32;;;;;;;10.00;4.30;;;11.00;99.90;;;;;;5067360;28;20043;-73
2023/03/16 12:06:07;;;;;;;17.38;4.07;;;11.60;99.90;;;;;;5056324;28;20032;-74
2023/03/16 12:08:52;;;;;;;14.93;4.50;;;11.60;99.90;;;;;;5057331;28;20043;-74
2023/03/16 12:11:21;;;;;;;16.73;5.50;;;11.50;99.90;;;;;;5069851;28;20036;-73
2023/03/16 12:13:51;;;;;;;12.05;3.83;;;11.50;99.90;;;;;;5068359;28;20109;-74
2023/03/16 12:16:39;;;;;;;13.90;4.40;;;11.30;99.90;;;;;;5083254;28;20490;-73
2023/03/16 12:19:15;;;;;;;20.10;5.05;;;11.80;99.90;;;;;;5096745;28;20032;-73
2023/03/16 12:21:47;;;;;;;11.63;3.65;;;12.10;99.90;;;;;;5097094;28;20115;-73
2023/03/16 12:24:18;;;;;;;7.00;3.17;;;11.90;99.90;;;;;;5096910;28;20028;-73
2023/03/16 12:26:48;;;;;;;5.47;2.75;;;11.70;99.90;;;;;;5065172;28;20033;-73
2023/03/16 12:29:42;;;;;;;18.92;5.30;;;11.40;99.90;;;;;;5079015;28;20052;-73
2023/03/16 12:32:21;;;;;;;5.95;2.40;;;12.00;99.90;;;;;;5076827;28;20024;-73
2023/03/16 12:34:52;;;;;;;12.23;3.00;;;12.30;99.90;;;;;;5085786;28;20481;-72
2023/03/16 12:37:22;;;;;;;;;;;12.70;99.90;;;;;;5097196;28;20036;-73
2023/03/16 12:39:48;;;;;;;4.88;2.72;;;13.10;99.90;;;;;;5096818;28;19912;-72
2023/03/16 12:42:40;;;;;;;16.05;3.75;;;13.60;99.90;;;;;;5096676;28;20485;-73
2023/03/16 12:45:30;;;;;;;13.75;4.57;;;13.00;99.90;;;;;;5096462;28;20028;-73
2023/03/16 12:48:08;;;;;;;10.15;2.90;;;13.10;99.90;;;;;;5096602;28;20035;-73
2023/03/16 12:50:45;;;;;;;11.57;4.00;;;13.30;99.90;;;;;;5078224;28;20032;-73
2023/03/16 12:53:29;;;;;;;12.02;3.97;;;13.50;99.90;;;;;;5096499;28;20028;-73
2023/03/16 12:55:56;;;;;;;8.70;3.88;;;13.90;99.90;;;;;;5096431;28;20056;-73
2023/03/16 12:58:24;;;;;;;18.65;3.95;;;14.10;99.90;;;;;;5096343;28;20097;-73
2023/03/16 13:00:58;;;;;;;6.50;3.28;;;14.20;99.90;;;;;;5096689;28;20033;-73
2023/03/16 13:03:25;;;;;;;13.85;4.10;;;14.10;99.90;;;;;;5097126;28;20157;-72
2023/03/16 13:05:55;;;;;;;8.90;3.88;;;13.60;99.90;;;;;;5097153;28;20385;-72
2023/03/16 13:08:22;;;;;;;8.15;3.30;;;13.60;99.90;;;;;;5088771;28;20161;-72
2023/03/16 13:11:04;;;;;;;5.55;2.67;;;14.10;99.90;;;;;;5096811;28;20031;-71
2023/03/16 13:13:31;;;;;;;13.20;8.23;;;14.30;99.90;;;;;;5096908;28;20024;-72